createdAt,value
2023-06-30T00:00:14.675Z,19.30
2023-06-30T00:02:43.515Z,19.40
2023-06-30T00:05:13.032Z,19.50
2023-06-30T00:07:41.268Z,19.50
2023-06-30T00:10:10.598Z,19.70
2023-06-30T00:12:39.038Z,19.20
2023-06-30T00:15:08.094Z,19.60
2023-06-30T00:17:36.537Z,19.10
2023-06-30T00:20:06.932Z,19.10
2023-06-30T00:22:37.212Z,19.00
2023-06-30T00:25:06.342Z,19.10
2023-06-30T00:27:34.474Z,19.00
2023-06-30T00:30:02.536Z,18.80
2023-06-30T00:32:32.878Z,19.10
2023-06-30T00:35:01.344Z,18.80
2023-06-30T00:37:29.525Z,19.20
2023-06-30T00:39:58.954Z,19.30
2023-06-30T00:47:24.282Z,19.10
2023-06-30T00:49:53.079Z,19.00
2023-06-30T00:52:21.253Z,19.10
2023-06-30T00:54:49.323Z,18.90
2023-06-30T00:57:18.810Z,18.40
2023-06-30T00:59:46.901Z,18.40
2023-06-30T01:02:21.970Z,18.40
2023-06-30T01:04:55.044Z,18.60
2023-06-30T01:07:31.017Z,19.10
2023-06-30T01:10:02.566Z,18.80
2023-06-30T01:12:32.556Z,18.50
2023-06-30T01:15:01.816Z,18.40
2023-06-30T01:17:31.246Z,18.30
2023-06-30T01:20:01.227Z,18.70
2023-06-30T01:22:33.895Z,18.70
2023-06-30T01:25:09.093Z,19.00
2023-06-30T01:27:39.912Z,18.10
2023-06-30T01:30:10.570Z,17.90
2023-06-30T01:32:39.058Z,18.00
2023-06-30T01:35:07.381Z,17.90
2023-06-30T01:37:35.612Z,17.70
2023-06-30T01:40:05.094Z,18.00
2023-06-30T01:42:33.985Z,18.20
2023-06-30T01:45:05.204Z,17.70
2023-06-30T01:47:34.441Z,18.10
2023-06-30T01:57:27.791Z,17.80
2023-06-30T01:59:55.888Z,18.00
2023-06-30T02:02:25.665Z,17.30
2023-06-30T02:04:53.782Z,17.80
2023-06-30T02:12:19.212Z,17.60
2023-06-30T02:14:47.344Z,17.60
2023-06-30T02:17:15.443Z,17.80
2023-06-30T02:19:44.948Z,17.70
2023-06-30T02:22:13.003Z,17.30
2023-06-30T02:32:07.079Z,17.70
2023-06-30T02:37:05.378Z,16.90
2023-06-30T02:42:04.673Z,17.30
2023-06-30T02:44:32.772Z,16.20
2023-06-30T02:47:00.844Z,16.30
2023-06-30T02:54:28.562Z,16.30
2023-06-30T02:56:56.623Z,16.30
2023-06-30T03:09:18.228Z,16.40
2023-06-30T03:11:47.733Z,15.80
2023-06-30T03:14:15.798Z,16.40
2023-06-30T03:19:12.300Z,15.20
2023-06-30T03:24:09.112Z,15.90
2023-06-30T03:29:06.887Z,14.90
2023-06-30T03:31:35.027Z,15.90
2023-06-30T03:46:28.138Z,16.80
2023-06-30T03:48:56.269Z,15.20
2023-06-30T03:51:24.358Z,15.40
2023-06-30T03:56:20.989Z,15.90
2023-06-30T04:03:47.627Z,16.00
2023-06-30T04:21:08.839Z,15.70
2023-06-30T04:26:05.709Z,15.70
2023-06-30T04:28:33.813Z,16.10
2023-06-30T04:31:04.503Z,15.30
2023-06-30T04:33:32.581Z,16.40
2023-06-30T04:36:00.727Z,15.80
2023-06-30T04:38:30.315Z,16.00
2023-06-30T04:48:24.024Z,16.60
2023-06-30T04:53:20.693Z,15.80
2023-06-30T04:55:50.456Z,16.50
2023-06-30T05:03:15.894Z,16.00
2023-06-30T05:05:44.398Z,16.40
2023-06-30T05:10:41.105Z,15.60
2023-06-30T05:13:10.545Z,16.70
2023-06-30T05:18:07.724Z,16.40
2023-06-30T05:20:37.637Z,16.20
2023-06-30T05:25:34.242Z,15.70
2023-06-30T05:30:32.634Z,15.80
2023-06-30T05:37:58.119Z,15.90
2023-06-30T05:40:26.290Z,15.90
2023-06-30T05:47:52.520Z,16.40
2023-06-30T05:55:20.721Z,16.40
2023-06-30T05:57:49.133Z,16.60
2023-06-30T06:00:18.353Z,16.20
2023-06-30T06:05:16.661Z,16.70
2023-06-30T06:10:13.771Z,16.30
2023-06-30T06:15:11.450Z,16.70
2023-06-30T06:17:39.686Z,16.70
2023-06-30T06:20:08.660Z,16.60
2023-06-30T06:22:38.156Z,16.40
2023-06-30T06:25:07.313Z,16.90
2023-06-30T06:27:36.669Z,17.70
2023-06-30T06:30:05.162Z,16.80
2023-06-30T06:32:33.300Z,17.80
2023-06-30T06:35:01.469Z,16.70
2023-06-30T06:39:59.441Z,16.60
2023-06-30T06:42:27.539Z,16.50
2023-06-30T06:48:01.602Z,16.90
2023-06-30T06:50:29.637Z,16.80
2023-06-30T06:55:27.482Z,17.00
2023-06-30T06:57:56.222Z,16.90
2023-06-30T07:00:24.901Z,17.20
2023-06-30T07:02:53.518Z,17.30
2023-06-30T07:05:21.746Z,17.80
2023-06-30T07:07:49.863Z,17.50
2023-06-30T07:10:18.038Z,17.80
2023-06-30T07:12:47.589Z,16.60
2023-06-30T07:15:15.826Z,17.20
2023-06-30T07:17:44.040Z,17.80
2023-06-30T07:20:13.427Z,17.80
2023-06-30T07:25:10.516Z,17.10
2023-06-30T07:27:39.260Z,17.30
2023-06-30T07:30:09.768Z,17.10
2023-06-30T07:35:06.825Z,17.20
2023-06-30T07:37:34.869Z,17.90
2023-06-30T07:40:15.938Z,17.90
2023-06-30T07:45:16.278Z,18.70
2023-06-30T07:47:45.629Z,19.30
2023-06-30T07:50:15.456Z,20.30
2023-06-30T07:52:44.941Z,19.40
2023-06-30T07:55:14.775Z,19.40
2023-06-30T08:00:12.705Z,19.90
2023-06-30T08:02:42.154Z,19.20
2023-06-30T08:05:11.080Z,19.30
2023-06-30T08:10:18.095Z,19.30
2023-06-30T08:12:46.428Z,19.60
2023-06-30T08:15:14.589Z,19.90
2023-06-30T08:17:54.066Z,19.50
2023-06-30T08:25:25.013Z,18.90
2023-06-30T08:30:24.655Z,18.40
2023-06-30T08:32:57.083Z,18.30
2023-06-30T08:35:26.026Z,17.30
2023-06-30T08:40:27.713Z,18.10
2023-06-30T08:42:57.450Z,18.50
2023-06-30T08:45:29.031Z,19.10
2023-06-30T08:48:05.985Z,19.80
2023-06-30T08:50:35.143Z,19.30
2023-06-30T08:53:04.092Z,20.40
2023-06-30T08:55:32.597Z,19.60
2023-06-30T08:58:06.981Z,20.40
2023-06-30T09:00:42.177Z,21.10
2023-06-30T09:03:11.842Z,21.10
2023-06-30T09:05:42.875Z,21.10
2023-06-30T09:08:16.743Z,21.50
2023-06-30T09:10:45.747Z,21.20
2023-06-30T09:13:14.454Z,20.30
2023-06-30T09:15:43.450Z,19.70
2023-06-30T09:18:13.446Z,19.80
2023-06-30T09:20:41.652Z,19.70
2023-06-30T09:23:09.984Z,19.80
2023-06-30T09:25:42.083Z,20.20
2023-06-30T09:28:13.485Z,19.50
2023-06-30T09:30:44.711Z,20.10
2023-06-30T09:33:15.869Z,20.60
2023-06-30T09:35:45.700Z,20.90
2023-06-30T09:38:15.079Z,20.20
2023-06-30T09:40:47.111Z,20.30
2023-06-30T09:43:19.798Z,21.10
2023-06-30T09:45:49.729Z,20.70
2023-06-30T09:48:19.590Z,21.10
2023-06-30T09:50:47.611Z,21.30
2023-06-30T09:53:20.945Z,21.30
2023-06-30T09:55:50.691Z,21.30
2023-06-30T10:00:47.904Z,21.00
2023-06-30T10:03:18.423Z,21.00
2023-06-30T10:05:49.430Z,20.80
2023-06-30T10:08:18.736Z,20.60
2023-06-30T10:10:47.001Z,21.30
2023-06-30T10:13:17.711Z,21.70
2023-06-30T10:15:47.857Z,21.70
2023-06-30T10:18:18.840Z,21.30
2023-06-30T10:20:50.306Z,21.20
2023-06-30T10:23:21.624Z,21.10
2023-06-30T10:25:51.434Z,21.30
2023-06-30T10:28:20.930Z,21.30
2023-06-30T10:30:52.433Z,21.20
2023-06-30T10:33:20.805Z,21.80
2023-06-30T10:35:51.539Z,21.50
2023-06-30T10:38:20.288Z,21.10
2023-06-30T10:40:48.722Z,21.70
2023-06-30T10:43:17.136Z,21.80
2023-06-30T10:46:12.954Z,21.40
2023-06-30T10:48:42.449Z,21.20
2023-06-30T10:51:14.769Z,21.10
2023-06-30T10:53:45.852Z,21.20
2023-06-30T10:56:14.990Z,21.20
2023-06-30T10:58:44.997Z,20.90
2023-06-30T11:01:16.599Z,21.50
2023-06-30T11:04:14.877Z,21.50
2023-06-30T11:06:48.777Z,21.20
2023-06-30T11:09:18.014Z,21.60
2023-06-30T11:11:50.785Z,21.50
2023-06-30T11:14:33.522Z,21.50
2023-06-30T11:17:06.779Z,21.60
2023-06-30T11:19:36.974Z,22.50
2023-06-30T11:22:24.527Z,22.20
2023-06-30T11:24:53.140Z,21.80
2023-06-30T11:27:21.524Z,21.90
2023-06-30T11:29:51.524Z,22.80
2023-06-30T11:32:20.633Z,22.40
2023-06-30T11:34:48.834Z,22.70
2023-06-30T11:37:17.040Z,21.60
2023-06-30T11:39:52.662Z,22.40
2023-06-30T11:42:21.021Z,21.90
2023-06-30T11:47:22.433Z,21.80
2023-06-30T11:49:51.353Z,22.10
2023-06-30T11:52:20.682Z,22.50
2023-06-30T11:54:50.551Z,23.00
2023-06-30T11:57:18.796Z,23.10
2023-06-30T12:02:15.698Z,23.10
2023-06-30T12:04:49.417Z,22.10
2023-06-30T12:07:17.902Z,21.70
2023-06-30T12:09:47.601Z,21.20
2023-06-30T12:12:29.129Z,21.30
2023-06-30T12:14:58.083Z,22.40
2023-06-30T12:17:28.812Z,22.10
2023-06-30T12:19:57.095Z,22.00
2023-06-30T12:22:29.218Z,22.00
2023-06-30T12:24:59.040Z,22.40
2023-06-30T12:27:29.467Z,22.00
2023-06-30T12:29:58.022Z,21.70
2023-06-30T12:32:29.862Z,22.60
2023-06-30T12:35:07.272Z,22.00
2023-06-30T12:37:35.644Z,22.30
2023-06-30T12:40:04.672Z,23.30
2023-06-30T12:42:34.816Z,22.90
2023-06-30T12:45:03.018Z,21.80
2023-06-30T12:47:31.270Z,21.70
2023-06-30T12:49:59.394Z,22.00
2023-06-30T12:52:27.561Z,21.90
2023-06-30T12:54:55.750Z,22.50
2023-06-30T12:57:23.901Z,21.80
2023-06-30T12:59:53.401Z,22.00
2023-06-30T13:02:21.756Z,23.10
2023-06-30T13:04:49.967Z,22.90
2023-06-30T13:07:18.097Z,22.50
2023-06-30T13:09:48.913Z,22.50
2023-06-30T13:12:18.265Z,23.00
2023-06-30T13:14:46.454Z,23.40
2023-06-30T13:17:17.162Z,23.20
2023-06-30T13:19:45.326Z,22.10
2023-06-30T13:22:14.705Z,23.10
2023-06-30T13:24:44.598Z,22.90
2023-06-30T13:27:13.477Z,23.30
2023-06-30T13:29:48.606Z,23.30
2023-06-30T13:32:18.736Z,23.30
2023-06-30T13:34:47.645Z,23.60
2023-06-30T13:37:15.883Z,23.60
2023-06-30T13:39:44.039Z,23.80
2023-06-30T13:42:12.580Z,23.90
2023-06-30T13:44:40.698Z,23.70
2023-06-30T13:47:08.862Z,23.90
2023-06-30T13:49:38.364Z,24.10
2023-06-30T13:52:07.194Z,23.90
2023-06-30T13:54:36.478Z,24.10
2023-06-30T13:57:04.767Z,24.70
2023-06-30T13:59:33.037Z,23.20
2023-06-30T14:02:01.197Z,23.50
2023-06-30T14:04:29.297Z,22.80
2023-06-30T14:06:59.096Z,22.10
2023-06-30T14:09:27.202Z,22.30
2023-06-30T14:11:55.314Z,23.10
2023-06-30T14:14:23.391Z,22.60
2023-06-30T14:16:51.833Z,22.30
2023-06-30T14:19:20.146Z,22.00
2023-06-30T14:21:48.280Z,23.30
2023-06-30T14:24:18.070Z,23.20
2023-06-30T14:26:46.299Z,23.20
2023-06-30T14:29:14.405Z,23.20
2023-06-30T14:31:42.811Z,23.40
2023-06-30T14:34:11.396Z,23.70
2023-06-30T14:36:39.634Z,23.60
2023-06-30T14:39:08.261Z,23.70
2023-06-30T14:41:40.047Z,23.50
2023-06-30T14:44:10.188Z,23.90
2023-06-30T14:46:38.310Z,23.90
2023-06-30T14:49:06.550Z,25.00
2023-06-30T14:51:34.789Z,24.20
2023-06-30T14:54:02.974Z,23.90
2023-06-30T14:56:31.578Z,23.80
2023-06-30T14:59:01.182Z,23.80
2023-06-30T15:01:29.297Z,23.70
2023-06-30T15:03:57.465Z,23.90
2023-06-30T15:06:25.502Z,23.70
2023-06-30T15:08:53.619Z,22.90
2023-06-30T15:11:21.821Z,23.40
2023-06-30T15:13:49.930Z,23.40
2023-06-30T15:16:19.518Z,23.20
2023-06-30T15:18:47.718Z,23.50
2023-06-30T15:21:15.966Z,23.80
2023-06-30T15:23:44.167Z,23.00
2023-06-30T15:26:12.302Z,23.50
2023-06-30T15:28:40.589Z,23.50
2023-06-30T15:31:08.660Z,23.40
2023-06-30T15:33:38.196Z,23.30
2023-06-30T15:36:06.774Z,23.20
2023-06-30T15:38:34.882Z,23.20
2023-06-30T15:41:21.201Z,23.50
2023-06-30T15:43:50.699Z,23.20
2023-06-30T15:46:19.045Z,23.30
2023-06-30T15:48:48.614Z,23.60
2023-06-30T15:51:16.659Z,23.00
2023-06-30T15:53:44.737Z,23.50
2023-06-30T15:56:12.868Z,23.70
2023-06-30T15:58:40.957Z,23.00
2023-06-30T16:01:09.327Z,22.90
2023-06-30T16:03:38.995Z,23.70
2023-06-30T16:06:08.917Z,23.00
2023-06-30T16:08:37.055Z,22.90
2023-06-30T16:11:05.539Z,23.00
2023-06-30T16:13:35.591Z,23.00
2023-06-30T16:16:03.920Z,22.90
2023-06-30T16:18:32.042Z,23.00
2023-06-30T16:21:00.083Z,22.80
2023-06-30T16:23:29.555Z,22.90
2023-06-30T16:25:57.569Z,22.90
2023-06-30T16:28:25.690Z,22.90
2023-06-30T16:30:54.572Z,23.50
2023-06-30T16:33:22.795Z,23.20
2023-06-30T16:35:50.983Z,22.60
2023-06-30T16:38:19.047Z,22.90
2023-06-30T16:40:48.567Z,22.80
2023-06-30T16:43:16.593Z,23.10
2023-06-30T16:45:45.173Z,23.30
2023-06-30T16:48:13.556Z,23.10
2023-06-30T16:50:41.670Z,22.90
2023-06-30T16:53:09.730Z,23.00
2023-06-30T16:55:38.290Z,22.50
2023-06-30T16:58:07.825Z,23.10
2023-06-30T17:00:36.341Z,23.00
2023-06-30T17:03:04.681Z,22.80
2023-06-30T17:05:32.885Z,23.40
2023-06-30T17:08:01.021Z,22.40
2023-06-30T17:10:29.082Z,23.00
2023-06-30T17:12:57.503Z,23.00
2023-06-30T17:15:27.058Z,23.10
2023-06-30T17:17:55.171Z,23.20
2023-06-30T17:20:23.204Z,22.90
2023-06-30T17:22:51.334Z,23.00
2023-06-30T17:25:19.441Z,22.00
2023-06-30T17:27:47.765Z,22.90
2023-06-30T17:30:16.149Z,22.50
2023-06-30T17:32:45.645Z,21.80
2023-06-30T17:35:13.686Z,22.80
2023-06-30T17:37:41.824Z,21.90
2023-06-30T17:40:10.455Z,21.60
2023-06-30T17:42:38.540Z,21.90
2023-06-30T17:45:07.766Z,22.50
2023-06-30T17:47:35.871Z,21.60
2023-06-30T17:50:05.710Z,22.70
2023-06-30T17:52:33.915Z,22.30
2023-06-30T17:55:01.931Z,22.70
2023-06-30T17:57:30.057Z,22.50
2023-06-30T17:59:58.042Z,21.70
2023-06-30T18:02:26.172Z,21.80
2023-06-30T18:04:54.416Z,21.20
2023-06-30T18:07:23.888Z,21.30
2023-06-30T18:09:52.094Z,21.70
2023-06-30T18:12:20.439Z,21.30
2023-06-30T18:14:48.586Z,21.80
2023-06-30T18:17:17.074Z,21.30
2023-06-30T18:19:45.167Z,22.20
2023-06-30T18:22:14.423Z,21.40
2023-06-30T18:24:43.989Z,22.00
2023-06-30T18:27:11.989Z,21.60
2023-06-30T18:29:40.581Z,21.40
2023-06-30T18:32:09.399Z,18.40
2023-06-30T18:34:37.509Z,21.30
2023-06-30T18:37:08.352Z,21.90
2023-06-30T18:39:36.602Z,21.60
2023-06-30T18:42:06.911Z,21.30
2023-06-30T18:44:37.831Z,21.60
2023-06-30T18:47:06.670Z,21.50
2023-06-30T18:49:34.990Z,20.90
2023-06-30T18:52:03.136Z,21.30
2023-06-30T18:54:31.191Z,21.30
2023-06-30T18:56:59.317Z,21.10
2023-06-30T18:59:28.705Z,21.10
2023-06-30T19:01:56.804Z,21.20
2023-06-30T19:04:25.033Z,20.10
2023-06-30T19:06:53.152Z,21.00
2023-06-30T19:09:21.459Z,20.70
2023-06-30T19:11:49.790Z,19.80
2023-06-30T19:14:17.924Z,20.70
2023-06-30T19:16:47.309Z,20.60
2023-06-30T19:19:15.680Z,20.80
2023-06-30T19:24:12.297Z,19.90
2023-06-30T19:26:40.409Z,20.60
2023-06-30T19:29:08.480Z,19.80
2023-06-30T19:31:36.603Z,19.60
2023-06-30T19:34:06.031Z,19.20
2023-06-30T19:36:34.113Z,19.40
2023-06-30T19:39:02.375Z,19.40
2023-06-30T19:41:30.401Z,19.20
2023-06-30T19:43:58.450Z,19.10
2023-06-30T19:46:27.730Z,19.30
2023-06-30T19:51:25.646Z,19.20
2023-06-30T19:53:53.687Z,19.20
2023-06-30T20:03:49.217Z,18.80
2023-06-30T20:08:47.072Z,17.90
2023-06-30T20:11:15.247Z,18.20
2023-06-30T20:13:46.757Z,18.30
2023-06-30T20:21:11.796Z,17.90
2023-06-30T20:23:39.914Z,18.50
2023-06-30T20:26:09.320Z,17.90
2023-06-30T20:28:38.130Z,17.70
2023-06-30T20:31:06.344Z,18.00
2023-06-30T20:33:34.638Z,18.70
2023-06-30T20:36:02.748Z,18.00
2023-06-30T20:38:31.237Z,17.50
2023-06-30T20:43:29.300Z,17.40
2023-06-30T20:48:25.729Z,17.60
2023-06-30T20:53:22.159Z,17.90
2023-06-30T20:55:50.608Z,17.40
2023-06-30T21:00:49.923Z,17.80
2023-06-30T21:03:18.179Z,17.40
2023-06-30T21:05:46.538Z,18.00
2023-06-30T21:08:14.741Z,17.60
2023-06-30T21:10:42.833Z,17.50
2023-06-30T21:15:39.327Z,18.00
2023-06-30T21:18:10.553Z,17.70
2023-06-30T21:20:38.839Z,18.00
2023-06-30T21:25:35.325Z,17.80
2023-06-30T21:30:31.781Z,17.80
2023-06-30T21:33:01.260Z,17.60
2023-06-30T21:35:31.978Z,17.70
2023-06-30T21:45:25.793Z,17.70
2023-06-30T21:47:53.965Z,17.80
2023-06-30T21:50:22.566Z,18.10
2023-06-30T21:52:52.125Z,17.50
2023-06-30T21:55:20.515Z,17.90
2023-06-30T21:57:49.847Z,18.00
2023-06-30T22:00:18.434Z,17.60
2023-06-30T22:02:47.460Z,18.00
2023-06-30T22:05:15.538Z,17.60
2023-06-30T22:07:43.601Z,17.40
2023-06-30T22:10:14.402Z,17.80
2023-06-30T22:12:42.477Z,18.00
2023-06-30T22:15:11.291Z,17.90
2023-06-30T22:17:39.679Z,17.40
2023-06-30T22:20:09.193Z,17.50
2023-06-30T22:22:37.451Z,17.80
2023-06-30T22:25:07.173Z,17.30
2023-06-30T22:27:37.695Z,17.60
2023-06-30T22:30:07.057Z,17.10
2023-06-30T22:32:35.220Z,17.20
2023-06-30T22:40:01.863Z,17.60
2023-06-30T22:44:59.789Z,17.20
2023-06-30T22:57:21.601Z,17.40
2023-06-30T22:59:52.395Z,17.50
2023-06-30T23:02:21.910Z,16.90
2023-06-30T23:17:16.068Z,17.40
2023-06-30T23:19:48.935Z,16.70
2023-06-30T23:22:18.226Z,16.00
2023-06-30T23:24:47.919Z,16.40
2023-06-30T23:27:16.611Z,16.60
2023-06-30T23:29:45.757Z,16.30
2023-06-30T23:32:16.883Z,17.20
2023-06-30T23:34:46.435Z,16.60
2023-06-30T23:37:15.575Z,17.00
2023-06-30T23:39:43.760Z,16.70
2023-06-30T23:42:12.354Z,16.40
2023-06-30T23:47:16.537Z,17.40
2023-06-30T23:52:14.716Z,16.60
2023-06-30T23:54:44.909Z,16.50
